createdAt,value
2023-02-07T00:02:13.165Z,10.47
2023-02-07T00:04:46.205Z,10.33
2023-02-07T00:07:19.238Z,9.77
2023-02-07T00:09:52.266Z,9.30
2023-02-07T00:12:19.272Z,9.70
2023-02-07T00:14:53.303Z,9.53
2023-02-07T00:17:22.064Z,10.23
2023-02-07T00:19:55.279Z,9.87
2023-02-07T00:22:22.112Z,9.67
2023-02-07T00:24:59.610Z,10.80
2023-02-07T00:27:50.507Z,9.77
2023-02-07T00:30:31.603Z,9.07
2023-02-07T00:33:05.277Z,9.40
2023-02-07T00:35:31.996Z,9.10
2023-02-07T00:38:08.305Z,9.37
2023-02-07T00:40:35.155Z,9.63
2023-02-07T00:43:08.290Z,8.57
2023-02-07T00:45:36.915Z,9.23
2023-02-07T00:48:13.447Z,8.83
2023-02-07T00:50:40.627Z,9.40
2023-02-07T00:53:07.605Z,8.50
2023-02-07T00:55:41.221Z,8.77
2023-02-07T00:58:07.830Z,8.60
2023-02-07T01:00:41.653Z,8.53
2023-02-07T01:03:10.938Z,8.53
2023-02-07T01:05:44.241Z,9.30
2023-02-07T01:08:11.334Z,9.00
2023-02-07T01:10:48.598Z,9.33
2023-02-07T01:13:16.392Z,9.40
2023-02-07T01:15:45.946Z,9.50
2023-02-07T01:18:19.320Z,8.97
2023-02-07T01:20:48.307Z,8.00
2023-02-07T01:23:22.566Z,8.70
2023-02-07T01:25:58.514Z,8.17
2023-02-07T01:28:31.644Z,8.83
2023-02-07T01:31:20.219Z,8.67
2023-02-07T01:33:47.002Z,8.43
2023-02-07T01:36:35.480Z,9.00
2023-02-07T01:39:10.279Z,9.23
2023-02-07T01:41:41.556Z,9.33
2023-02-07T01:44:34.317Z,7.57
2023-02-07T01:47:01.248Z,8.30
2023-02-07T01:49:49.701Z,8.60
2023-02-07T01:52:23.454Z,8.07
2023-02-07T01:55:04.481Z,8.73
2023-02-07T01:57:31.309Z,8.43
2023-02-07T02:00:06.349Z,8.30
2023-02-07T02:05:26.449Z,8.20
2023-02-07T02:07:53.207Z,7.97
2023-02-07T02:10:31.213Z,8.50
2023-02-07T02:13:13.520Z,8.50
2023-02-07T02:15:59.330Z,8.73
2023-02-07T02:18:38.321Z,9.40
2023-02-07T02:24:53.403Z,8.27
2023-02-07T02:28:20.162Z,8.70
2023-02-07T02:31:28.429Z,8.50
2023-02-07T02:34:30.338Z,8.90
2023-02-07T02:37:30.281Z,8.90
2023-02-07T02:40:15.306Z,8.97
2023-02-07T02:42:53.011Z,8.80
2023-02-07T02:45:46.290Z,8.30
2023-02-07T02:48:16.329Z,7.13
2023-02-07T02:50:54.327Z,8.83
2023-02-07T02:53:21.978Z,8.43
2023-02-07T02:59:14.970Z,8.33
2023-02-07T03:05:15.328Z,8.47
2023-02-07T03:07:58.571Z,7.97
2023-02-07T03:10:39.731Z,8.10
2023-02-07T03:13:12.358Z,7.93
2023-02-07T03:16:07.388Z,7.97
2023-02-07T03:18:54.562Z,8.77
2023-02-07T03:21:52.257Z,8.07
2023-02-07T03:24:33.281Z,8.37
2023-02-07T03:27:22.279Z,8.70
2023-02-07T03:29:59.359Z,7.53
2023-02-07T03:32:44.323Z,9.03
2023-02-07T03:35:20.214Z,8.47
2023-02-07T03:37:58.324Z,8.77
2023-02-07T03:40:39.298Z,8.00
2023-02-07T03:43:11.413Z,8.93
2023-02-07T03:45:45.279Z,8.50
2023-02-07T03:48:12.414Z,8.33
2023-02-07T03:50:46.478Z,8.43
2023-02-07T03:53:13.285Z,8.40
2023-02-07T03:55:46.304Z,7.77
2023-02-07T03:58:12.976Z,8.00
2023-02-07T04:00:46.382Z,8.67
2023-02-07T04:06:15.263Z,8.07
2023-02-07T04:08:42.018Z,8.60
2023-02-07T04:11:36.311Z,8.90
2023-02-07T04:14:02.946Z,8.57
2023-02-07T04:16:43.302Z,8.00
2023-02-07T04:19:10.037Z,8.93
2023-02-07T04:21:43.276Z,9.03
2023-02-07T04:24:19.123Z,8.33
2023-02-07T04:26:52.429Z,8.43
2023-02-07T04:29:19.291Z,8.70
2023-02-07T04:31:59.333Z,8.57
2023-02-07T04:34:39.330Z,8.70
2023-02-07T04:37:12.312Z,7.70
2023-02-07T04:39:45.314Z,8.83
2023-02-07T04:42:12.226Z,8.30
2023-02-07T04:44:45.369Z,8.07
2023-02-07T04:47:11.940Z,7.93
2023-02-07T04:49:47.338Z,8.03
2023-02-07T04:52:13.948Z,8.77
2023-02-07T04:54:50.288Z,8.43
2023-02-07T04:57:17.013Z,9.17
2023-02-07T04:59:50.261Z,8.13
2023-02-07T05:02:16.879Z,8.80
2023-02-07T05:04:50.463Z,8.10
2023-02-07T05:07:24.326Z,8.40
2023-02-07T05:09:51.258Z,7.70
2023-02-07T05:12:24.377Z,7.73
2023-02-07T05:14:59.229Z,8.83
2023-02-07T05:17:26.160Z,7.60
2023-02-07T05:19:59.338Z,8.30
2023-02-07T05:22:32.543Z,7.13
2023-02-07T05:24:59.242Z,7.87
2023-02-07T05:27:28.780Z,8.23
2023-02-07T05:30:09.986Z,8.47
2023-02-07T05:33:02.504Z,8.23
2023-02-07T05:35:40.602Z,8.20
2023-02-07T05:38:10.815Z,8.30
2023-02-07T05:40:45.346Z,7.97
2023-02-07T05:43:12.918Z,7.93
2023-02-07T05:45:46.464Z,7.47
2023-02-07T05:48:20.460Z,7.87
2023-02-07T05:50:54.470Z,7.57
2023-02-07T05:53:21.079Z,8.07
2023-02-07T05:56:07.360Z,8.70
2023-02-07T05:58:34.103Z,8.00
2023-02-07T06:01:07.405Z,8.57
2023-02-07T06:03:36.578Z,8.20
2023-02-07T06:06:15.726Z,8.53
2023-02-07T06:08:45.357Z,8.17
2023-02-07T06:11:19.574Z,8.27
2023-02-07T06:13:52.343Z,8.47
2023-02-07T06:16:32.379Z,9.13
2023-02-07T06:19:05.329Z,8.63
2023-02-07T06:21:45.350Z,8.20
2023-02-07T06:24:19.345Z,8.27
2023-02-07T06:26:47.029Z,9.20
2023-02-07T06:29:21.340Z,9.07
2023-02-07T06:32:00.344Z,9.63
2023-02-07T06:34:33.948Z,9.40
2023-02-07T06:37:07.463Z,9.63
2023-02-07T06:39:40.413Z,9.93
2023-02-07T06:42:13.322Z,8.97
2023-02-07T06:44:40.276Z,8.93
2023-02-07T06:47:19.359Z,8.93
2023-02-07T06:49:46.206Z,8.60
2023-02-07T06:52:19.490Z,8.33
2023-02-07T06:54:46.088Z,8.90
2023-02-07T06:57:12.665Z,8.80
2023-02-07T06:59:45.384Z,8.33
2023-02-07T07:02:32.632Z,8.23
2023-02-07T07:04:59.216Z,7.90
2023-02-07T07:07:32.401Z,7.63
2023-02-07T07:09:59.113Z,8.50
2023-02-07T07:12:32.411Z,7.87
2023-02-07T07:14:59.077Z,8.23
2023-02-07T07:17:28.781Z,8.30
2023-02-07T07:20:02.374Z,8.10
2023-02-07T07:22:29.062Z,8.33
2023-02-07T07:25:23.703Z,7.73
2023-02-07T07:27:50.478Z,8.60
2023-02-07T07:30:25.460Z,8.67
2023-02-07T07:32:58.647Z,8.90
2023-02-07T07:35:32.318Z,8.47
2023-02-07T07:37:58.947Z,7.83
2023-02-07T07:40:35.353Z,7.97
2023-02-07T07:43:02.089Z,8.00
2023-02-07T07:45:35.406Z,9.43
2023-02-07T07:48:02.117Z,8.53
2023-02-07T07:50:37.901Z,7.93
2023-02-07T07:53:14.383Z,7.87
2023-02-07T07:55:47.325Z,8.33
2023-02-07T07:58:13.913Z,8.70
2023-02-07T08:00:47.598Z,8.80
2023-02-07T08:03:16.472Z,8.03
2023-02-07T08:05:48.493Z,8.07
2023-02-07T08:08:22.458Z,8.57
2023-02-07T08:13:44.499Z,8.60
2023-02-07T08:16:31.452Z,8.00
2023-02-07T08:19:04.334Z,8.47
2023-02-07T08:21:36.734Z,8.27
2023-02-07T08:24:10.512Z,8.57
2023-02-07T08:26:42.202Z,9.33
2023-02-07T08:29:22.399Z,8.70
2023-02-07T08:32:14.722Z,9.20
2023-02-07T08:34:54.402Z,9.50
2023-02-07T08:37:22.763Z,8.97
2023-02-07T08:39:59.374Z,8.77
2023-02-07T08:42:26.182Z,9.30
2023-02-07T08:44:59.419Z,9.03
2023-02-07T08:47:26.451Z,10.43
2023-02-07T08:50:00.361Z,9.30
2023-02-07T08:52:33.342Z,8.67
2023-02-07T08:54:59.892Z,10.47
2023-02-07T08:57:33.379Z,9.80
2023-02-07T09:00:00.292Z,10.20
2023-02-07T09:02:33.384Z,9.27
2023-02-07T09:05:00.017Z,9.30
2023-02-07T09:07:33.409Z,9.80
2023-02-07T09:10:00.107Z,8.03
2023-02-07T09:12:33.429Z,9.67
2023-02-07T09:15:06.418Z,10.23
2023-02-07T09:17:39.414Z,10.33
2023-02-07T09:20:06.940Z,11.03
2023-02-07T09:23:00.407Z,9.80
2023-02-07T09:25:27.012Z,10.30
2023-02-07T09:28:17.486Z,10.13
2023-02-07T09:31:23.507Z,10.10
2023-02-07T09:33:56.389Z,10.47
2023-02-07T09:36:43.381Z,10.10
2023-02-07T09:39:16.407Z,10.37
2023-02-07T09:42:05.439Z,10.47
2023-02-07T09:44:56.639Z,9.30
2023-02-07T09:47:25.554Z,9.23
2023-02-07T09:50:31.449Z,9.20
2023-02-07T09:53:05.008Z,7.53
2023-02-07T09:56:01.471Z,8.47
2023-02-07T09:58:55.494Z,7.90
2023-02-07T10:04:35.398Z,7.43
2023-02-07T10:07:14.074Z,7.10
2023-02-07T10:09:43.751Z,7.07
2023-02-07T10:12:35.481Z,7.13
2023-02-07T10:15:52.573Z,6.70
2023-02-07T10:18:38.396Z,6.90
2023-02-07T10:21:38.302Z,5.80
2023-02-07T10:24:32.435Z,5.30
2023-02-07T10:27:10.774Z,6.07
2023-02-07T10:29:57.515Z,5.47
2023-02-07T10:32:44.372Z,5.03
2023-02-07T10:35:33.619Z,5.27
2023-02-07T10:38:08.464Z,4.93
2023-02-07T10:40:49.399Z,5.57
2023-02-07T10:43:30.657Z,5.20
2023-02-07T10:46:44.516Z,4.83
2023-02-07T10:49:38.449Z,5.60
2023-02-07T10:52:29.257Z,4.17
2023-02-07T10:55:17.660Z,4.47
2023-02-07T10:57:59.056Z,4.40
2023-02-07T11:00:37.844Z,4.37
2023-02-07T11:03:20.467Z,4.83
2023-02-07T11:06:11.633Z,4.63
2023-02-07T11:08:38.485Z,4.20
2023-02-07T11:11:27.438Z,4.53
2023-02-07T11:13:55.587Z,4.73
2023-02-07T11:16:31.459Z,5.23
2023-02-07T11:19:01.003Z,4.83
2023-02-07T11:21:39.468Z,4.57
2023-02-07T11:24:33.991Z,4.27
2023-02-07T11:27:20.483Z,3.90
2023-02-07T11:30:03.589Z,3.95
2023-02-07T11:32:45.483Z,3.60
2023-02-07T11:35:34.458Z,3.78
2023-02-07T11:38:04.880Z,3.70
2023-02-07T11:43:33.479Z,3.63
2023-02-07T11:46:10.730Z,3.75
2023-02-07T11:48:47.487Z,4.50
2023-02-07T11:51:18.840Z,4.07
2023-02-07T11:54:07.458Z,3.40
2023-02-07T11:56:45.594Z,3.97
2023-02-07T11:59:31.463Z,3.53
2023-02-07T12:02:29.721Z,4.63
2023-02-07T12:05:20.692Z,3.90
2023-02-07T12:07:57.526Z,4.03
2023-02-07T12:10:36.503Z,3.95
2023-02-07T12:13:14.957Z,32.70
2023-02-07T12:16:24.528Z,4.32
2023-02-07T12:19:04.162Z,3.95
2023-02-07T12:22:05.598Z,3.90
2023-02-07T12:25:16.737Z,4.13
2023-02-07T12:27:59.517Z,3.42
2023-02-07T12:30:41.070Z,3.53
2023-02-07T12:33:31.606Z,3.65
2023-02-07T12:36:11.410Z,3.42
2023-02-07T12:38:55.560Z,3.47
2023-02-07T12:41:41.052Z,3.65
2023-02-07T12:44:24.755Z,4.10
2023-02-07T12:47:05.649Z,4.28
2023-02-07T12:50:03.552Z,3.95
2023-02-07T12:53:01.331Z,4.05
2023-02-07T12:55:50.469Z,4.13
2023-02-07T12:58:40.470Z,4.00
2023-02-07T13:01:35.481Z,4.10
2023-02-07T13:04:41.561Z,3.97
2023-02-07T13:07:39.673Z,3.75
2023-02-07T13:10:24.631Z,4.15
2023-02-07T13:13:35.788Z,4.40
2023-02-07T13:16:37.561Z,4.03
2023-02-07T13:19:19.021Z,4.22
2023-02-07T13:22:05.510Z,3.47
2023-02-07T13:27:42.581Z,3.53
2023-02-07T13:30:27.658Z,3.60
2023-02-07T13:33:08.492Z,3.50
2023-02-07T13:35:43.111Z,3.90
2023-02-07T13:38:45.899Z,4.78
2023-02-07T13:41:57.585Z,3.83
2023-02-07T13:44:53.620Z,3.60
2023-02-07T13:47:42.272Z,4.18
2023-02-07T13:50:27.810Z,4.00
2023-02-07T13:53:11.905Z,4.15
2023-02-07T13:55:47.636Z,3.78
2023-02-07T13:58:58.595Z,3.78
2023-02-07T14:01:34.679Z,3.88
2023-02-07T14:04:21.687Z,4.15
2023-02-07T14:07:00.532Z,4.25
2023-02-07T14:09:51.492Z,4.03
2023-02-07T14:12:32.500Z,3.75
2023-02-07T14:15:35.055Z,4.00
2023-02-07T14:18:11.551Z,3.88
2023-02-07T14:20:38.706Z,3.58
2023-02-07T14:23:14.708Z,4.20
2023-02-07T14:25:55.173Z,3.80
2023-02-07T14:28:40.559Z,4.13
2023-02-07T14:31:38.078Z,4.22
2023-02-07T14:34:29.561Z,4.10
2023-02-07T14:37:03.688Z,3.72
2023-02-07T14:39:32.587Z,3.92
2023-02-07T14:42:18.749Z,4.07
2023-02-07T14:44:54.590Z,3.97
2023-02-07T14:47:43.585Z,3.50
2023-02-07T14:50:46.662Z,3.88
2023-02-07T14:53:14.934Z,3.47
2023-02-07T14:56:04.590Z,3.60
2023-02-07T14:58:46.833Z,3.80
2023-02-07T15:01:23.705Z,4.03
2023-02-07T15:04:06.112Z,3.55
2023-02-07T15:06:56.673Z,3.50
2023-02-07T15:09:34.924Z,3.85
2023-02-07T15:12:25.860Z,3.50
2023-02-07T15:14:57.295Z,3.60
2023-02-07T15:17:44.002Z,4.10
2023-02-07T15:20:27.626Z,3.50
2023-02-07T15:23:02.647Z,4.00
2023-02-07T15:25:31.544Z,4.47
2023-02-07T15:28:21.538Z,4.00
2023-02-07T15:31:08.058Z,4.00
2023-02-07T15:33:56.762Z,4.73
2023-02-07T15:36:41.865Z,3.90
2023-02-07T15:39:38.701Z,3.43
2023-02-07T15:42:05.977Z,3.97
2023-02-07T15:44:40.637Z,3.70
2023-02-07T15:47:07.852Z,3.93
2023-02-07T15:49:49.642Z,4.07
2023-02-07T15:52:22.005Z,3.67
2023-02-07T15:54:58.781Z,4.23
2023-02-07T15:57:32.295Z,4.00
2023-02-07T16:00:15.620Z,4.50
2023-02-07T16:03:21.666Z,3.77
2023-02-07T16:05:55.700Z,3.83
2023-02-07T16:08:37.507Z,4.00
2023-02-07T16:11:36.616Z,3.70
2023-02-07T16:14:12.599Z,4.10
2023-02-07T16:16:53.610Z,4.53
2023-02-07T16:19:28.950Z,3.90
2023-02-07T16:22:15.661Z,4.50
2023-02-07T16:24:58.858Z,4.00
2023-02-07T16:27:38.033Z,3.80
2023-02-07T16:30:05.999Z,4.20
2023-02-07T16:32:45.741Z,4.00
2023-02-07T16:35:40.773Z,4.20
2023-02-07T16:38:07.433Z,4.07
2023-02-07T16:40:40.961Z,4.00
2023-02-07T16:43:08.645Z,3.90
2023-02-07T16:45:46.028Z,4.70
2023-02-07T16:48:18.332Z,5.27
2023-02-07T16:51:02.271Z,5.20
2023-02-07T16:53:29.082Z,6.27
2023-02-07T16:56:27.794Z,5.73
2023-02-07T16:58:54.911Z,5.17
2023-02-07T17:01:28.689Z,5.33
2023-02-07T17:04:01.775Z,4.93
2023-02-07T17:06:36.780Z,10.40
2023-02-07T17:09:05.282Z,7.77
2023-02-07T17:11:38.826Z,8.90
2023-02-07T17:14:12.701Z,12.07
2023-02-07T17:16:48.713Z,9.70
2023-02-07T17:19:27.613Z,9.93
2023-02-07T17:22:00.659Z,11.93
2023-02-07T17:24:31.837Z,11.47
2023-02-07T17:27:05.709Z,9.70
2023-02-07T17:29:38.601Z,8.60
2023-02-07T17:32:11.760Z,6.00
2023-02-07T17:34:46.112Z,6.30
2023-02-07T17:37:19.641Z,6.07
2023-02-07T17:39:53.647Z,6.77
2023-02-07T17:42:20.771Z,6.07
2023-02-07T17:44:54.776Z,6.17
2023-02-07T17:47:21.826Z,5.20
2023-02-07T17:49:54.730Z,5.33
2023-02-07T17:55:10.727Z,5.20
2023-02-07T17:57:38.013Z,5.13
2023-02-07T18:00:11.780Z,5.50
2023-02-07T18:02:56.541Z,5.33
2023-02-07T18:05:35.988Z,5.73
2023-02-07T18:08:02.914Z,5.20
2023-02-07T18:10:40.078Z,4.93
2023-02-07T18:13:13.764Z,5.70
2023-02-07T18:15:55.327Z,6.00
2023-02-07T18:18:22.398Z,6.37
2023-02-07T18:21:07.773Z,6.43
2023-02-07T18:23:35.201Z,5.70
2023-02-07T18:26:29.717Z,6.27
2023-02-07T18:28:56.633Z,6.20
2023-02-07T18:31:31.890Z,6.17
2023-02-07T18:34:19.694Z,6.37
2023-02-07T18:36:52.782Z,6.43
2023-02-07T18:39:20.096Z,6.13
2023-02-07T18:41:53.751Z,6.17
2023-02-07T18:44:20.656Z,6.10
2023-02-07T18:46:54.728Z,6.43
2023-02-07T18:49:29.673Z,5.50
2023-02-07T18:51:56.313Z,5.90
2023-02-07T18:54:30.809Z,5.53
2023-02-07T18:56:57.628Z,5.93
2023-02-07T18:59:31.689Z,5.83
2023-02-07T19:02:04.796Z,6.10
2023-02-07T19:04:31.869Z,6.10
2023-02-07T19:07:04.537Z,5.43
2023-02-07T19:09:40.055Z,6.20
2023-02-07T19:12:34.781Z,5.90
2023-02-07T19:15:07.741Z,6.27
2023-02-07T19:17:41.724Z,5.97
2023-02-07T19:20:09.655Z,6.00
2023-02-07T19:22:42.771Z,6.13
2023-02-07T19:25:09.592Z,7.03
2023-02-07T19:27:42.892Z,8.60
2023-02-07T19:30:10.037Z,8.30
2023-02-07T19:32:49.737Z,8.00
2023-02-07T19:35:26.311Z,9.50
2023-02-07T19:37:59.713Z,11.20
2023-02-07T19:40:26.534Z,11.90
2023-02-07T19:42:53.282Z,11.30
2023-02-07T19:45:26.807Z,10.87
2023-02-07T19:47:54.764Z,9.43
2023-02-07T19:50:28.764Z,10.03
2023-02-07T19:53:01.756Z,10.40
2023-02-07T19:55:41.698Z,8.87
2023-02-07T19:58:08.670Z,8.83
2023-02-07T20:00:42.771Z,8.27
2023-02-07T20:03:12.575Z,9.13
2023-02-07T20:05:52.842Z,9.23
2023-02-07T20:08:20.686Z,9.53
2023-02-07T20:10:54.777Z,9.40
2023-02-07T20:13:21.530Z,9.30
2023-02-07T20:15:48.886Z,9.47
2023-02-07T20:18:21.817Z,9.77
2023-02-07T20:21:00.489Z,9.17
2023-02-07T20:23:33.268Z,9.83
2023-02-07T20:26:15.675Z,9.30
2023-02-07T20:28:42.653Z,9.37
2023-02-07T20:31:35.670Z,9.13
2023-02-07T20:34:08.712Z,8.97
2023-02-07T20:36:43.777Z,9.30
2023-02-07T20:39:21.734Z,8.97
2023-02-07T20:41:50.109Z,9.43
2023-02-07T20:44:26.723Z,8.97
2023-02-07T20:46:55.035Z,8.43
2023-02-07T20:49:34.641Z,9.03
2023-02-07T20:52:01.346Z,7.53
2023-02-07T20:54:36.631Z,7.17
2023-02-07T20:57:04.090Z,6.87
2023-02-07T20:59:42.680Z,6.97
2023-02-07T21:02:11.183Z,7.50
2023-02-07T21:04:44.708Z,7.17
2023-02-07T21:07:11.377Z,6.53
2023-02-07T21:09:44.729Z,6.43
2023-02-07T21:12:17.703Z,6.87
2023-02-07T21:14:44.544Z,6.80
2023-02-07T21:17:18.699Z,7.30
2023-02-07T21:19:45.502Z,8.23
2023-02-07T21:22:18.647Z,8.63
2023-02-07T21:24:45.298Z,9.60
2023-02-07T21:27:18.820Z,9.17
2023-02-07T21:29:45.399Z,9.27
2023-02-07T21:32:18.786Z,8.53
2023-02-07T21:34:51.968Z,8.27
2023-02-07T21:37:31.734Z,8.23
2023-02-07T21:40:04.693Z,8.03
2023-02-07T21:42:31.639Z,7.13
2023-02-07T21:45:06.090Z,7.40
2023-02-07T21:47:32.734Z,7.17
2023-02-07T21:50:05.742Z,6.83
2023-02-07T21:52:32.849Z,7.97
2023-02-07T21:55:05.743Z,8.43
2023-02-07T21:57:32.357Z,6.83
2023-02-07T22:00:05.717Z,6.60
2023-02-07T22:02:32.436Z,7.90
2023-02-07T22:05:05.781Z,8.97
2023-02-07T22:07:32.428Z,8.60
2023-02-07T22:10:12.798Z,8.37
2023-02-07T22:12:39.402Z,8.27
2023-02-07T22:15:12.672Z,8.33
2023-02-07T22:17:39.260Z,7.67
2023-02-07T22:20:06.260Z,8.57
2023-02-07T22:22:39.707Z,8.40
2023-02-07T22:25:06.746Z,9.17
2023-02-07T22:27:39.745Z,9.80
2023-02-07T22:30:06.680Z,9.43
2023-02-07T22:32:39.693Z,10.37
2023-02-07T22:35:19.679Z,9.37
2023-02-07T22:37:46.360Z,7.60
2023-02-07T22:40:19.822Z,7.57
2023-02-07T22:42:52.768Z,8.00
2023-02-07T22:45:25.732Z,8.63
2023-02-07T22:47:52.354Z,8.53
2023-02-07T22:50:25.772Z,7.47
2023-02-07T22:52:52.643Z,8.80
2023-02-07T22:55:25.747Z,8.93
2023-02-07T22:57:52.657Z,8.60
2023-02-07T23:00:26.705Z,8.33
2023-02-07T23:02:53.348Z,8.67
2023-02-07T23:05:26.764Z,9.00
2023-02-07T23:07:54.060Z,9.07
2023-02-07T23:10:27.802Z,8.60
2023-02-07T23:13:01.784Z,9.30
2023-02-07T23:15:34.745Z,9.70
2023-02-07T23:18:01.373Z,9.40
2023-02-07T23:20:34.745Z,8.13
2023-02-07T23:23:01.302Z,9.47
2023-02-07T23:25:27.880Z,9.40
2023-02-07T23:28:00.815Z,9.50
2023-02-07T23:30:27.518Z,8.47
2023-02-07T23:33:00.744Z,8.77
2023-02-07T23:35:33.897Z,8.43
2023-02-07T23:38:08.754Z,8.17
2023-02-07T23:40:35.394Z,8.07
2023-02-07T23:43:08.794Z,8.07
2023-02-07T23:45:41.678Z,8.53
2023-02-07T23:48:08.431Z,8.57
2023-02-07T23:50:42.019Z,8.43
2023-02-07T23:53:08.828Z,8.63
2023-02-07T23:55:41.768Z,8.33
2023-02-07T23:58:08.392Z,8.30
